Aviation Digital Data Service (ADDS)

Output produced by METARs form (1912 UTC 18 April 2019)
found at http://www.aviationweather.gov/metar/data/
 
METAR text: UGTB 181900Z 31020KT 9999 SCT066CB 10/03 Q1017 NOSIG
Conditions at: UGTB (TBILISI/NOVO-AL , GE) observed 1900 UTC 18 April 2019
Temperature: 10.0°C (50°F)
Dewpoint: 3.0°C (37°F) [RH = 62%]
Pressure (altimeter): 30.03 inches Hg (1017.0 mb)
Winds: from the NW (310 degrees) at 23 MPH (20 knots; 10.3 m/s)
Visibility: 6 or more miles (10+ km)
Ceiling: at least 12,000 feet AGL
Clouds: scattered clouds at 6600 feet AGL
Weather: no significant weather observed at this time

METAR text: UGTB 181830Z 30019KT 9999 BKN064CB 10/04 Q1017 NOSIG
Conditions at: UGTB (TBILISI/NOVO-AL , GE) observed 1830 UTC 18 April 2019
Temperature: 10.0°C (50°F)
Dewpoint: 4.0°C (39°F) [RH = 66%]
Pressure (altimeter): 30.03 inches Hg (1017.0 mb)
Winds: from the WNW (300 degrees) at 22 MPH (19 knots; 9.8 m/s)
Visibility: 6 or more miles (10+ km)
Ceiling: 6400 feet AGL
Clouds: broken clouds at 6400 feet AGL
Weather: no significant weather observed at this time

METAR text: UGTB 181800Z 30020KT 9999 SCT050CB 10/04 Q1017 NOSIG
Conditions at: UGTB (TBILISI/NOVO-AL , GE) observed 1800 UTC 18 April 2019
Temperature: 10.0°C (50°F)
Dewpoint: 4.0°C (39°F) [RH = 66%]
Pressure (altimeter): 30.03 inches Hg (1017.0 mb)
Winds: from the WNW (300 degrees) at 23 MPH (20 knots; 10.3 m/s)
Visibility: 6 or more miles (10+ km)
Ceiling: at least 12,000 feet AGL
Clouds: scattered clouds at 5000 feet AGL
Weather: no significant weather observed at this time

METAR text: UGTB 181730Z 30020KT 9999 SCT050CB 10/04 Q1016 NOSIG
Conditions at: UGTB (TBILISI/NOVO-AL , GE) observed 1730 UTC 18 April 2019
Temperature: 10.0°C (50°F)
Dewpoint: 4.0°C (39°F) [RH = 66%]
Pressure (altimeter): 30.00 inches Hg (1016.0 mb)
Winds: from the WNW (300 degrees) at 23 MPH (20 knots; 10.3 m/s)
Visibility: 6 or more miles (10+ km)
Ceiling: at least 12,000 feet AGL
Clouds: scattered clouds at 5000 feet AGL
Weather: no significant weather observed at this time

METAR text: UGTB 181700Z 30021KT 9999 SCT050CB 10/03 Q1016 NOSIG
Conditions at: UGTB (TBILISI/NOVO-AL , GE) observed 1700 UTC 18 April 2019
Temperature: 10.0°C (50°F)
Dewpoint: 3.0°C (37°F) [RH = 62%]
Pressure (altimeter): 30.00 inches Hg (1016.0 mb)
Winds: from the WNW (300 degrees) at 24 MPH (21 knots; 10.8 m/s)
Visibility: 6 or more miles (10+ km)
Ceiling: at least 12,000 feet AGL
Clouds: scattered clouds at 5000 feet AGL
Weather: no significant weather observed at this time

METAR text: UGTB 181630Z 31018KT 9999 SCT050CB 11/03 Q1016 NOSIG
Conditions at: UGTB (TBILISI/NOVO-AL , GE) observed 1630 UTC 18 April 2019
Temperature: 11.0°C (52°F)
Dewpoint: 3.0°C (37°F) [RH = 58%]
Pressure (altimeter): 30.00 inches Hg (1016.0 mb)
Winds: from the NW (310 degrees) at 21 MPH (18 knots; 9.3 m/s)
Visibility: 6 or more miles (10+ km)
Ceiling: at least 12,000 feet AGL
Clouds: scattered clouds at 5000 feet AGL
Weather: no significant weather observed at this time

METAR text: UGTB 181600Z 31020KT 9999 SCT064CB 11/03 Q1016 NOSIG
Conditions at: UGTB (TBILISI/NOVO-AL , GE) observed 1600 UTC 18 April 2019
Temperature: 11.0°C (52°F)
Dewpoint: 3.0°C (37°F) [RH = 58%]
Pressure (altimeter): 30.00 inches Hg (1016.0 mb)
Winds: from the NW (310 degrees) at 23 MPH (20 knots; 10.3 m/s)
Visibility: 6 or more miles (10+ km)
Ceiling: at least 12,000 feet AGL
Clouds: scattered clouds at 6400 feet AGL
Weather: no significant weather observed at this time

METAR text: UGTB 181530Z 31023KT 9999 SCT050CB 12/04 Q1015 NOSIG
Conditions at: UGTB (TBILISI/NOVO-AL , GE) observed 1530 UTC 18 April 2019
Temperature: 12.0°C (54°F)
Dewpoint: 4.0°C (39°F) [RH = 58%]
Pressure (altimeter): 29.97 inches Hg (1015.0 mb)
Winds: from the NW (310 degrees) at 26 MPH (23 knots; 11.8 m/s)
Visibility: 6 or more miles (10+ km)
Ceiling: at least 12,000 feet AGL
Clouds: scattered clouds at 5000 feet AGL
Weather: no significant weather observed at this time

METAR text: UGTB 181500Z 31020KT 9999 SCT050CB 12/04 Q1015 NOSIG
Conditions at: UGTB (TBILISI/NOVO-AL , GE) observed 1500 UTC 18 April 2019
Temperature: 12.0°C (54°F)
Dewpoint: 4.0°C (39°F) [RH = 58%]
Pressure (altimeter): 29.97 inches Hg (1015.0 mb)
Winds: from the NW (310 degrees) at 23 MPH (20 knots; 10.3 m/s)
Visibility: 6 or more miles (10+ km)
Ceiling: at least 12,000 feet AGL
Clouds: scattered clouds at 5000 feet AGL
Weather: no significant weather observed at this time

METAR text: UGTB 181430Z 32026KT CAVOK 13/04 Q1015 NOSIG
Conditions at: UGTB (TBILISI/NOVO-AL , GE) observed 1430 UTC 18 April 2019
Temperature: 13.0°C (55°F)
Dewpoint: 4.0°C (39°F) [RH = 54%]
Pressure (altimeter): 29.97 inches Hg (1015.0 mb)
Winds: from the NW (320 degrees) at 30 MPH (26 knots; 13.4 m/s)
Visibility: 6 or more miles (10+ km)
Ceiling: ceiling and visibility are OK
Clouds: unknown
Weather: no significant weather observed at this time

METAR text: UGTB 181400Z 33027KT CAVOK 14/04 Q1015 NOSIG
Conditions at: UGTB (TBILISI/NOVO-AL , GE) observed 1400 UTC 18 April 2019
Temperature: 14.0°C (57°F)
Dewpoint: 4.0°C (39°F) [RH = 51%]
Pressure (altimeter): 29.97 inches Hg (1015.0 mb)
Winds: from the NNW (330 degrees) at 31 MPH (27 knots; 13.9 m/s)
Visibility: 6 or more miles (10+ km)
Ceiling: ceiling and visibility are OK
Clouds: unknown
Weather: no significant weather observed at this time

METAR text: UGTB 181330Z 32026KT CAVOK 14/03 Q1015 NOSIG
Conditions at: UGTB (TBILISI/NOVO-AL , GE) observed 1330 UTC 18 April 2019
Temperature: 14.0°C (57°F)
Dewpoint: 3.0°C (37°F) [RH = 47%]
Pressure (altimeter): 29.97 inches Hg (1015.0 mb)
Winds: from the NW (320 degrees) at 30 MPH (26 knots; 13.4 m/s)
Visibility: 6 or more miles (10+ km)
Ceiling: ceiling and visibility are OK
Clouds: unknown
Weather: no significant weather observed at this time

METAR text: UGTB 181300Z 32026KT CAVOK 15/04 Q1014 NOSIG
Conditions at: UGTB (TBILISI/NOVO-AL , GE) observed 1300 UTC 18 April 2019
Temperature: 15.0°C (59°F)
Dewpoint: 4.0°C (39°F) [RH = 48%]
Pressure (altimeter): 29.94 inches Hg (1014.0 mb)
Winds: from the NW (320 degrees) at 30 MPH (26 knots; 13.4 m/s)
Visibility: 6 or more miles (10+ km)
Ceiling: ceiling and visibility are OK
Clouds: unknown
Weather: no significant weather observed at this time

METAR text: UGTB 181230Z 31026KT CAVOK 16/04 Q1014 NOSIG
Conditions at: UGTB (TBILISI/NOVO-AL , GE) observed 1230 UTC 18 April 2019
Temperature: 16.0°C (61°F)
Dewpoint: 4.0°C (39°F) [RH = 45%]
Pressure (altimeter): 29.94 inches Hg (1014.0 mb)
Winds: from the NW (310 degrees) at 30 MPH (26 knots; 13.4 m/s)
Visibility: 6 or more miles (10+ km)
Ceiling: ceiling and visibility are OK
Clouds: unknown
Weather: no significant weather observed at this time

METAR text: UGTB 181200Z 32025KT CAVOK 16/04 Q1014 NOSIG
Conditions at: UGTB (TBILISI/NOVO-AL , GE) observed 1200 UTC 18 April 2019
Temperature: 16.0°C (61°F)
Dewpoint: 4.0°C (39°F) [RH = 45%]
Pressure (altimeter): 29.94 inches Hg (1014.0 mb)
Winds: from the NW (320 degrees) at 29 MPH (25 knots; 12.9 m/s)
Visibility: 6 or more miles (10+ km)
Ceiling: ceiling and visibility are OK
Clouds: unknown
Weather: no significant weather observed at this time

METAR text: UGTB 181130Z 32026KT CAVOK 16/04 Q1014 NOSIG
Conditions at: UGTB (TBILISI/NOVO-AL , GE) observed 1130 UTC 18 April 2019
Temperature: 16.0°C (61°F)
Dewpoint: 4.0°C (39°F) [RH = 45%]
Pressure (altimeter): 29.94 inches Hg (1014.0 mb)
Winds: from the NW (320 degrees) at 30 MPH (26 knots; 13.4 m/s)
Visibility: 6 or more miles (10+ km)
Ceiling: ceiling and visibility are OK
Clouds: unknown
Weather: no significant weather observed at this time

METAR text: UGTB 181100Z 32028KT 9999 SCT050CB 15/04 Q1015 NOSIG
Conditions at: UGTB (TBILISI/NOVO-AL , GE) observed 1100 UTC 18 April 2019
Temperature: 15.0°C (59°F)
Dewpoint: 4.0°C (39°F) [RH = 48%]
Pressure (altimeter): 29.97 inches Hg (1015.0 mb)
Winds: from the NW (320 degrees) at 32 MPH (28 knots; 14.4 m/s)
Visibility: 6 or more miles (10+ km)
Ceiling: at least 12,000 feet AGL
Clouds: scattered clouds at 5000 feet AGL
Weather: no significant weather observed at this time

METAR text: UGTB 181030Z 32028KT 9999 SCT050CB 15/04 Q1015 NOSIG
Conditions at: UGTB (TBILISI/NOVO-AL , GE) observed 1030 UTC 18 April 2019
Temperature: 15.0°C (59°F)
Dewpoint: 4.0°C (39°F) [RH = 48%]
Pressure (altimeter): 29.97 inches Hg (1015.0 mb)
Winds: from the NW (320 degrees) at 32 MPH (28 knots; 14.4 m/s)
Visibility: 6 or more miles (10+ km)
Ceiling: at least 12,000 feet AGL
Clouds: scattered clouds at 5000 feet AGL
Weather: no significant weather observed at this time

METAR text: UGTB 181000Z 31027KT 9999 SCT050CB 15/04 Q1015 NOSIG
Conditions at: UGTB (TBILISI/NOVO-AL , GE) observed 1000 UTC 18 April 2019
Temperature: 15.0°C (59°F)
Dewpoint: 4.0°C (39°F) [RH = 48%]
Pressure (altimeter): 29.97 inches Hg (1015.0 mb)
Winds: from the NW (310 degrees) at 31 MPH (27 knots; 13.9 m/s)
Visibility: 6 or more miles (10+ km)
Ceiling: at least 12,000 feet AGL
Clouds: scattered clouds at 5000 feet AGL
Weather: no significant weather observed at this time

METAR text: UGTB 180930Z 32027KT 9999 SCT050CB 15/04 Q1015 NOSIG
Conditions at: UGTB (TBILISI/NOVO-AL , GE) observed 0930 UTC 18 April 2019
Temperature: 15.0°C (59°F)
Dewpoint: 4.0°C (39°F) [RH = 48%]
Pressure (altimeter): 29.97 inches Hg (1015.0 mb)
Winds: from the NW (320 degrees) at 31 MPH (27 knots; 13.9 m/s)
Visibility: 6 or more miles (10+ km)
Ceiling: at least 12,000 feet AGL
Clouds: scattered clouds at 5000 feet AGL
Weather: no significant weather observed at this time

METAR text: UGTB 180900Z 32028G40KT CAVOK 15/04 Q1015 NOSIG
Conditions at: UGTB (TBILISI/NOVO-AL , GE) observed 0900 UTC 18 April 2019
Temperature: 15.0°C (59°F)
Dewpoint: 4.0°C (39°F) [RH = 48%]
Pressure (altimeter): 29.97 inches Hg (1015.0 mb)
Winds: from the NW (320 degrees) at 32 MPH (28 knots; 14.4 m/s)
gusting to 46 MPH (40 knots; 20.6 m/s)
Visibility: 6 or more miles (10+ km)
Ceiling: ceiling and visibility are OK
Clouds: unknown
Weather: no significant weather observed at this time

METAR text: UGTB 180830Z 32030G40KT CAVOK 13/03 Q1015 NOSIG
Conditions at: UGTB (TBILISI/NOVO-AL , GE) observed 0830 UTC 18 April 2019
Temperature: 13.0°C (55°F)
Dewpoint: 3.0°C (37°F) [RH = 51%]
Pressure (altimeter): 29.97 inches Hg (1015.0 mb)
Winds: from the NW (320 degrees) at 34 MPH (30 knots; 15.4 m/s)
gusting to 46 MPH (40 knots; 20.6 m/s)
Visibility: 6 or more miles (10+ km)
Ceiling: ceiling and visibility are OK
Clouds: unknown
Weather: no significant weather observed at this time

METAR text: UGTB 180800Z 31031KT CAVOK 13/04 Q1015 NOSIG
Conditions at: UGTB (TBILISI/NOVO-AL , GE) observed 0800 UTC 18 April 2019
Temperature: 13.0°C (55°F)
Dewpoint: 4.0°C (39°F) [RH = 54%]
Pressure (altimeter): 29.97 inches Hg (1015.0 mb)
Winds: from the NW (310 degrees) at 36 MPH (31 knots; 15.9 m/s)
Visibility: 6 or more miles (10+ km)
Ceiling: ceiling and visibility are OK
Clouds: unknown
Weather: no significant weather observed at this time

METAR text: UGTB 180730Z 31030KT CAVOK 12/03 Q1015 NOSIG
Conditions at: UGTB (TBILISI/NOVO-AL , GE) observed 0730 UTC 18 April 2019
Temperature: 12.0°C (54°F)
Dewpoint: 3.0°C (37°F) [RH = 54%]
Pressure (altimeter): 29.97 inches Hg (1015.0 mb)
Winds: from the NW (310 degrees) at 34 MPH (30 knots; 15.4 m/s)
Visibility: 6 or more miles (10+ km)
Ceiling: ceiling and visibility are OK
Clouds: unknown
Weather: no significant weather observed at this time

METAR text: UGTB 180700Z 31029G40KT CAVOK 11/03 Q1015 NOSIG
Conditions at: UGTB (TBILISI/NOVO-AL , GE) observed 0700 UTC 18 April 2019
Temperature: 11.0°C (52°F)
Dewpoint: 3.0°C (37°F) [RH = 58%]
Pressure (altimeter): 29.97 inches Hg (1015.0 mb)
Winds: from the NW (310 degrees) at 33 MPH (29 knots; 14.9 m/s)
gusting to 46 MPH (40 knots; 20.6 m/s)
Visibility: 6 or more miles (10+ km)
Ceiling: ceiling and visibility are OK
Clouds: unknown
Weather: no significant weather observed at this time

METAR text: UGTB 180630Z 31029G39KT CAVOK 10/03 Q1015 NOSIG
Conditions at: UGTB (TBILISI/NOVO-AL , GE) observed 0630 UTC 18 April 2019
Temperature: 10.0°C (50°F)
Dewpoint: 3.0°C (37°F) [RH = 62%]
Pressure (altimeter): 29.97 inches Hg (1015.0 mb)
Winds: from the NW (310 degrees) at 33 MPH (29 knots; 14.9 m/s)
gusting to 45 MPH (39 knots; 20.1 m/s)
Visibility: 6 or more miles (10+ km)
Ceiling: ceiling and visibility are OK
Clouds: unknown
Weather: no significant weather observed at this time

METAR text: UGTB 180600Z 31027G39KT CAVOK 10/03 Q1015 NOSIG
Conditions at: UGTB (TBILISI/NOVO-AL , GE) observed 0600 UTC 18 April 2019
Temperature: 10.0°C (50°F)
Dewpoint: 3.0°C (37°F) [RH = 62%]
Pressure (altimeter): 29.97 inches Hg (1015.0 mb)
Winds: from the NW (310 degrees) at 31 MPH (27 knots; 13.9 m/s)
gusting to 45 MPH (39 knots; 20.1 m/s)
Visibility: 6 or more miles (10+ km)
Ceiling: ceiling and visibility are OK
Clouds: unknown
Weather: no significant weather observed at this time

METAR text: UGTB 180530Z 31026KT CAVOK 10/02 Q1014 NOSIG
Conditions at: UGTB (TBILISI/NOVO-AL , GE) observed 0530 UTC 18 April 2019
Temperature: 10.0°C (50°F)
Dewpoint: 2.0°C (36°F) [RH = 57%]
Pressure (altimeter): 29.94 inches Hg (1014.0 mb)
Winds: from the NW (310 degrees) at 30 MPH (26 knots; 13.4 m/s)
Visibility: 6 or more miles (10+ km)
Ceiling: ceiling and visibility are OK
Clouds: unknown
Weather: no significant weather observed at this time

METAR text: UGTB 180500Z 31024KT CAVOK 09/02 Q1014 NOSIG
Conditions at: UGTB (TBILISI/NOVO-AL , GE) observed 0500 UTC 18 April 2019
Temperature: 9.0°C (48°F)
Dewpoint: 2.0°C (36°F) [RH = 61%]
Pressure (altimeter): 29.94 inches Hg (1014.0 mb)
Winds: from the NW (310 degrees) at 28 MPH (24 knots; 12.3 m/s)
Visibility: 6 or more miles (10+ km)
Ceiling: ceiling and visibility are OK
Clouds: unknown
Weather: no significant weather observed at this time

METAR text: UGTB 180430Z 31024G34KT CAVOK 09/02 Q1014 NOSIG
Conditions at: UGTB (TBILISI/NOVO-AL , GE) observed 0430 UTC 18 April 2019
Temperature: 9.0°C (48°F)
Dewpoint: 2.0°C (36°F) [RH = 61%]
Pressure (altimeter): 29.94 inches Hg (1014.0 mb)
Winds: from the NW (310 degrees) at 28 MPH (24 knots; 12.3 m/s)
gusting to 39 MPH (34 knots; 17.5 m/s)
Visibility: 6 or more miles (10+ km)
Ceiling: ceiling and visibility are OK
Clouds: unknown
Weather: no significant weather observed at this time

METAR text: UGTB 180400Z 31025KT CAVOK 08/02 Q1014 NOSIG
Conditions at: UGTB (TBILISI/NOVO-AL , GE) observed 0400 UTC 18 April 2019
Temperature: 8.0°C (46°F)
Dewpoint: 2.0°C (36°F) [RH = 66%]
Pressure (altimeter): 29.94 inches Hg (1014.0 mb)
Winds: from the NW (310 degrees) at 29 MPH (25 knots; 12.9 m/s)
Visibility: 6 or more miles (10+ km)
Ceiling: ceiling and visibility are OK
Clouds: unknown
Weather: no significant weather observed at this time

METAR text: UGTB 180330Z 31023KT CAVOK 08/02 Q1013 NOSIG
Conditions at: UGTB (TBILISI/NOVO-AL , GE) observed 0330 UTC 18 April 2019
Temperature: 8.0°C (46°F)
Dewpoint: 2.0°C (36°F) [RH = 66%]
Pressure (altimeter): 29.91 inches Hg (1013.0 mb)
Winds: from the NW (310 degrees) at 26 MPH (23 knots; 11.8 m/s)
Visibility: 6 or more miles (10+ km)
Ceiling: ceiling and visibility are OK
Clouds: unknown
Weather: no significant weather observed at this time

METAR text: UGTB 180300Z 31023G35KT CAVOK 08/02 Q1013 NOSIG
Conditions at: UGTB (TBILISI/NOVO-AL , GE) observed 0300 UTC 18 April 2019
Temperature: 8.0°C (46°F)
Dewpoint: 2.0°C (36°F) [RH = 66%]
Pressure (altimeter): 29.91 inches Hg (1013.0 mb)
Winds: from the NW (310 degrees) at 26 MPH (23 knots; 11.8 m/s)
gusting to 40 MPH (35 knots; 18.0 m/s)
Visibility: 6 or more miles (10+ km)
Ceiling: ceiling and visibility are OK
Clouds: unknown
Weather: no significant weather observed at this time

METAR text: UGTB 180230Z 31028G38KT CAVOK 08/02 Q1013 NOSIG
Conditions at: UGTB (TBILISI/NOVO-AL , GE) observed 0230 UTC 18 April 2019
Temperature: 8.0°C (46°F)
Dewpoint: 2.0°C (36°F) [RH = 66%]
Pressure (altimeter): 29.91 inches Hg (1013.0 mb)
Winds: from the NW (310 degrees) at 32 MPH (28 knots; 14.4 m/s)
gusting to 44 MPH (38 knots; 19.5 m/s)
Visibility: 6 or more miles (10+ km)
Ceiling: ceiling and visibility are OK
Clouds: unknown
Weather: no significant weather observed at this time

METAR text: UGTB 180200Z 31024KT CAVOK 08/02 Q1013 NOSIG
Conditions at: UGTB (TBILISI/NOVO-AL , GE) observed 0200 UTC 18 April 2019
Temperature: 8.0°C (46°F)
Dewpoint: 2.0°C (36°F) [RH = 66%]
Pressure (altimeter): 29.91 inches Hg (1013.0 mb)
Winds: from the NW (310 degrees) at 28 MPH (24 knots; 12.3 m/s)
Visibility: 6 or more miles (10+ km)
Ceiling: ceiling and visibility are OK
Clouds: unknown
Weather: no significant weather observed at this time

METAR text: UGTB 180130Z 30026G38KT CAVOK 08/02 Q1012 NOSIG
Conditions at: UGTB (TBILISI/NOVO-AL , GE) observed 0130 UTC 18 April 2019
Temperature: 8.0°C (46°F)
Dewpoint: 2.0°C (36°F) [RH = 66%]
Pressure (altimeter): 29.88 inches Hg (1012.0 mb)
Winds: from the WNW (300 degrees) at 30 MPH (26 knots; 13.4 m/s)
gusting to 44 MPH (38 knots; 19.5 m/s)
Visibility: 6 or more miles (10+ km)
Ceiling: ceiling and visibility are OK
Clouds: unknown
Weather: no significant weather observed at this time

METAR text: UGTB 180100Z 30028G38KT CAVOK 08/02 Q1012 NOSIG
Conditions at: UGTB (TBILISI/NOVO-AL , GE) observed 0100 UTC 18 April 2019
Temperature: 8.0°C (46°F)
Dewpoint: 2.0°C (36°F) [RH = 66%]
Pressure (altimeter): 29.88 inches Hg (1012.0 mb)
Winds: from the WNW (300 degrees) at 32 MPH (28 knots; 14.4 m/s)
gusting to 44 MPH (38 knots; 19.5 m/s)
Visibility: 6 or more miles (10+ km)
Ceiling: ceiling and visibility are OK
Clouds: unknown
Weather: no significant weather observed at this time

METAR text: UGTB 180030Z 30026G38KT CAVOK 08/02 Q1012 NOSIG
Conditions at: UGTB (TBILISI/NOVO-AL , GE) observed 0030 UTC 18 April 2019
Temperature: 8.0°C (46°F)
Dewpoint: 2.0°C (36°F) [RH = 66%]
Pressure (altimeter): 29.88 inches Hg (1012.0 mb)
Winds: from the WNW (300 degrees) at 30 MPH (26 knots; 13.4 m/s)
gusting to 44 MPH (38 knots; 19.5 m/s)
Visibility: 6 or more miles (10+ km)
Ceiling: ceiling and visibility are OK
Clouds: unknown
Weather: no significant weather observed at this time

METAR text: UGTB 180000Z 31026G37KT CAVOK 08/02 Q1012 NOSIG
Conditions at: UGTB (TBILISI/NOVO-AL , GE) observed 0000 UTC 18 April 2019
Temperature: 8.0°C (46°F)
Dewpoint: 2.0°C (36°F) [RH = 66%]
Pressure (altimeter): 29.88 inches Hg (1012.0 mb)
Winds: from the NW (310 degrees) at 30 MPH (26 knots; 13.4 m/s)
gusting to 43 MPH (37 knots; 19.0 m/s)
Visibility: 6 or more miles (10+ km)
Ceiling: ceiling and visibility are OK
Clouds: unknown
Weather: no significant weather observed at this time

METAR text: UGTB 172330Z 30025G38KT CAVOK 08/02 Q1012 NOSIG
Conditions at: UGTB (TBILISI/NOVO-AL , GE) observed 2330 UTC 17 April 2019
Temperature: 8.0°C (46°F)
Dewpoint: 2.0°C (36°F) [RH = 66%]
Pressure (altimeter): 29.88 inches Hg (1012.0 mb)
Winds: from the WNW (300 degrees) at 29 MPH (25 knots; 12.9 m/s)
gusting to 44 MPH (38 knots; 19.5 m/s)
Visibility: 6 or more miles (10+ km)
Ceiling: ceiling and visibility are OK
Clouds: unknown
Weather: no significant weather observed at this time

METAR text: UGTB 172300Z 31026KT CAVOK 08/02 Q1012 NOSIG
Conditions at: UGTB (TBILISI/NOVO-AL , GE) observed 2300 UTC 17 April 2019
Temperature: 8.0°C (46°F)
Dewpoint: 2.0°C (36°F) [RH = 66%]
Pressure (altimeter): 29.88 inches Hg (1012.0 mb)
Winds: from the NW (310 degrees) at 30 MPH (26 knots; 13.4 m/s)
Visibility: 6 or more miles (10+ km)
Ceiling: ceiling and visibility are OK
Clouds: unknown
Weather: no significant weather observed at this time

METAR text: UGTB 172230Z 31027G38KT CAVOK 08/02 Q1011 NOSIG
Conditions at: UGTB (TBILISI/NOVO-AL , GE) observed 2230 UTC 17 April 2019
Temperature: 8.0°C (46°F)
Dewpoint: 2.0°C (36°F) [RH = 66%]
Pressure (altimeter): 29.85 inches Hg (1011.0 mb)
Winds: from the NW (310 degrees) at 31 MPH (27 knots; 13.9 m/s)
gusting to 44 MPH (38 knots; 19.5 m/s)
Visibility: 6 or more miles (10+ km)
Ceiling: ceiling and visibility are OK
Clouds: unknown
Weather: no significant weather observed at this time

METAR text: UGTB 172200Z 31029G41KT CAVOK 08/02 Q1011 NOSIG
Conditions at: UGTB (TBILISI/NOVO-AL , GE) observed 2200 UTC 17 April 2019
Temperature: 8.0°C (46°F)
Dewpoint: 2.0°C (36°F) [RH = 66%]
Pressure (altimeter): 29.85 inches Hg (1011.0 mb)
Winds: from the NW (310 degrees) at 33 MPH (29 knots; 14.9 m/s)
gusting to 47 MPH (41 knots; 21.1 m/s)
Visibility: 6 or more miles (10+ km)
Ceiling: ceiling and visibility are OK
Clouds: unknown
Weather: no significant weather observed at this time

METAR text: UGTB 172130Z 32034G45KT CAVOK 08/02 Q1011 WS R31 NOSIG
Conditions at: UGTB (TBILISI/NOVO-AL , GE) observed 2130 UTC 17 April 2019
Temperature: 8.0°C (46°F)
Dewpoint: 2.0°C (36°F) [RH = 66%]
Pressure (altimeter): 29.85 inches Hg (1011.0 mb)
Winds: from the NW (320 degrees) at 39 MPH (34 knots; 17.5 m/s)
gusting to 52 MPH (45 knots; 23.1 m/s)
Visibility: 6 or more miles (10+ km)
Ceiling: ceiling and visibility are OK
Clouds: unknown
Weather: no significant weather observed at this time

METAR text: UGTB 172100Z 31028G41KT CAVOK 09/02 Q1011 WS R31 NOSIG
Conditions at: UGTB (TBILISI/NOVO-AL , GE) observed 2100 UTC 17 April 2019
Temperature: 9.0°C (48°F)
Dewpoint: 2.0°C (36°F) [RH = 61%]
Pressure (altimeter): 29.85 inches Hg (1011.0 mb)
Winds: from the NW (310 degrees) at 32 MPH (28 knots; 14.4 m/s)
gusting to 47 MPH (41 knots; 21.1 m/s)
Visibility: 6 or more miles (10+ km)
Ceiling: ceiling and visibility are OK
Clouds: unknown
Weather: no significant weather observed at this time

METAR text: UGTB 172030Z 31028G39KT CAVOK 09/02 Q1011 WS R31 NOSIG
Conditions at: UGTB (TBILISI/NOVO-AL , GE) observed 2030 UTC 17 April 2019
Temperature: 9.0°C (48°F)
Dewpoint: 2.0°C (36°F) [RH = 61%]
Pressure (altimeter): 29.85 inches Hg (1011.0 mb)
Winds: from the NW (310 degrees) at 32 MPH (28 knots; 14.4 m/s)
gusting to 45 MPH (39 knots; 20.1 m/s)
Visibility: 6 or more miles (10+ km)
Ceiling: ceiling and visibility are OK
Clouds: unknown
Weather: no significant weather observed at this time

METAR text: UGTB 172000Z 31031KT CAVOK 09/02 Q1011 NOSIG
Conditions at: UGTB (TBILISI/NOVO-AL , GE) observed 2000 UTC 17 April 2019
Temperature: 9.0°C (48°F)
Dewpoint: 2.0°C (36°F) [RH = 61%]
Pressure (altimeter): 29.85 inches Hg (1011.0 mb)
Winds: from the NW (310 degrees) at 36 MPH (31 knots; 15.9 m/s)
Visibility: 6 or more miles (10+ km)
Ceiling: ceiling and visibility are OK
Clouds: unknown
Weather: no significant weather observed at this time

METAR text: UGTB 171930Z 30028KT CAVOK 09/02 Q1011 NOSIG
Conditions at: UGTB (TBILISI/NOVO-AL , GE) observed 1930 UTC 17 April 2019
Temperature: 9.0°C (48°F)
Dewpoint: 2.0°C (36°F) [RH = 61%]
Pressure (altimeter): 29.85 inches Hg (1011.0 mb)
Winds: from the WNW (300 degrees) at 32 MPH (28 knots; 14.4 m/s)
Visibility: 6 or more miles (10+ km)
Ceiling: ceiling and visibility are OK
Clouds: unknown
Weather: no significant weather observed at this time

METAR text: UGTB 171900Z 30029KT CAVOK 09/02 Q1011 NOSIG
Conditions at: UGTB (TBILISI/NOVO-AL , GE) observed 1900 UTC 17 April 2019
Temperature: 9.0°C (48°F)
Dewpoint: 2.0°C (36°F) [RH = 61%]
Pressure (altimeter): 29.85 inches Hg (1011.0 mb)
Winds: from the WNW (300 degrees) at 33 MPH (29 knots; 14.9 m/s)
Visibility: 6 or more miles (10+ km)
Ceiling: ceiling and visibility are OK
Clouds: unknown
Weather: no significant weather observed at this time

METAR text: UGTB 171830Z 31029G40KT CAVOK 09/02 Q1011 NOSIG
Conditions at: UGTB (TBILISI/NOVO-AL , GE) observed 1830 UTC 17 April 2019
Temperature: 9.0°C (48°F)
Dewpoint: 2.0°C (36°F) [RH = 61%]
Pressure (altimeter): 29.85 inches Hg (1011.0 mb)
Winds: from the NW (310 degrees) at 33 MPH (29 knots; 14.9 m/s)
gusting to 46 MPH (40 knots; 20.6 m/s)
Visibility: 6 or more miles (10+ km)
Ceiling: ceiling and visibility are OK
Clouds: unknown
Weather: no significant weather observed at this time

METAR text: UGTB 171800Z 31032G42KT CAVOK 09/03 Q1011 NOSIG
Conditions at: UGTB (TBILISI/NOVO-AL , GE) observed 1800 UTC 17 April 2019
Temperature: 9.0°C (48°F)
Dewpoint: 3.0°C (37°F) [RH = 66%]
Pressure (altimeter): 29.85 inches Hg (1011.0 mb)
Winds: from the NW (310 degrees) at 37 MPH (32 knots; 16.5 m/s)
gusting to 48 MPH (42 knots; 21.6 m/s)
Visibility: 6 or more miles (10+ km)
Ceiling: ceiling and visibility are OK
Clouds: unknown
Weather: no significant weather observed at this time

METAR text: UGTB 171730Z 31031G42KT CAVOK 09/03 Q1011 NOSIG
Conditions at: UGTB (TBILISI/NOVO-AL , GE) observed 1730 UTC 17 April 2019
Temperature: 9.0°C (48°F)
Dewpoint: 3.0°C (37°F) [RH = 66%]
Pressure (altimeter): 29.85 inches Hg (1011.0 mb)
Winds: from the NW (310 degrees) at 36 MPH (31 knots; 15.9 m/s)
gusting to 48 MPH (42 knots; 21.6 m/s)
Visibility: 6 or more miles (10+ km)
Ceiling: ceiling and visibility are OK
Clouds: unknown
Weather: no significant weather observed at this time

METAR text: UGTB 171700Z 31032G42KT CAVOK 09/03 Q1011 NOSIG
Conditions at: UGTB (TBILISI/NOVO-AL , GE) observed 1700 UTC 17 April 2019
Temperature: 9.0°C (48°F)
Dewpoint: 3.0°C (37°F) [RH = 66%]
Pressure (altimeter): 29.85 inches Hg (1011.0 mb)
Winds: from the NW (310 degrees) at 37 MPH (32 knots; 16.5 m/s)
gusting to 48 MPH (42 knots; 21.6 m/s)
Visibility: 6 or more miles (10+ km)
Ceiling: ceiling and visibility are OK
Clouds: unknown
Weather: no significant weather observed at this time

METAR text: UGTB 171630Z 31032G42KT CAVOK 09/03 Q1010 NOSIG
Conditions at: UGTB (TBILISI/NOVO-AL , GE) observed 1630 UTC 17 April 2019
Temperature: 9.0°C (48°F)
Dewpoint: 3.0°C (37°F) [RH = 66%]
Pressure (altimeter): 29.82 inches Hg (1010.0 mb)
Winds: from the NW (310 degrees) at 37 MPH (32 knots; 16.5 m/s)
gusting to 48 MPH (42 knots; 21.6 m/s)
Visibility: 6 or more miles (10+ km)
Ceiling: ceiling and visibility are OK
Clouds: unknown
Weather: no significant weather observed at this time

METAR text: UGTB 171600Z 31032G42KT 9999 FEW050 09/03 Q1010 NOSIG
Conditions at: UGTB (TBILISI/NOVO-AL , GE) observed 1600 UTC 17 April 2019
Temperature: 9.0°C (48°F)
Dewpoint: 3.0°C (37°F) [RH = 66%]
Pressure (altimeter): 29.82 inches Hg (1010.0 mb)
Winds: from the NW (310 degrees) at 37 MPH (32 knots; 16.5 m/s)
gusting to 48 MPH (42 knots; 21.6 m/s)
Visibility: 6 or more miles (10+ km)
Ceiling: at least 12,000 feet AGL
Clouds: few clouds at 5000 feet AGL
Weather: no significant weather observed at this time

METAR text: UGTB 171530Z 31029G40KT 9999 FEW050 09/03 Q1010 NOSIG
Conditions at: UGTB (TBILISI/NOVO-AL , GE) observed 1530 UTC 17 April 2019
Temperature: 9.0°C (48°F)
Dewpoint: 3.0°C (37°F) [RH = 66%]
Pressure (altimeter): 29.82 inches Hg (1010.0 mb)
Winds: from the NW (310 degrees) at 33 MPH (29 knots; 14.9 m/s)
gusting to 46 MPH (40 knots; 20.6 m/s)
Visibility: 6 or more miles (10+ km)
Ceiling: at least 12,000 feet AGL
Clouds: few clouds at 5000 feet AGL
Weather: no significant weather observed at this time

METAR text: UGTB 171500Z 31030G40KT 9999 FEW050 10/03 Q1009 NOSIG
Conditions at: UGTB (TBILISI/NOVO-AL , GE) observed 1500 UTC 17 April 2019
Temperature: 10.0°C (50°F)
Dewpoint: 3.0°C (37°F) [RH = 62%]
Pressure (altimeter): 29.79 inches Hg (1009.0 mb)
Winds: from the NW (310 degrees) at 34 MPH (30 knots; 15.4 m/s)
gusting to 46 MPH (40 knots; 20.6 m/s)
Visibility: 6 or more miles (10+ km)
Ceiling: at least 12,000 feet AGL
Clouds: few clouds at 5000 feet AGL
Weather: no significant weather observed at this time

METAR text: UGTB 171430Z 31028G41KT 9999 FEW050 10/04 Q1009 NOSIG
Conditions at: UGTB (TBILISI/NOVO-AL , GE) observed 1430 UTC 17 April 2019
Temperature: 10.0°C (50°F)
Dewpoint: 4.0°C (39°F) [RH = 66%]
Pressure (altimeter): 29.79 inches Hg (1009.0 mb)
Winds: from the NW (310 degrees) at 32 MPH (28 knots; 14.4 m/s)
gusting to 47 MPH (41 knots; 21.1 m/s)
Visibility: 6 or more miles (10+ km)
Ceiling: at least 12,000 feet AGL
Clouds: few clouds at 5000 feet AGL
Weather: no significant weather observed at this time

METAR text: UGTB 171400Z 31028G40KT 9999 FEW050 10/04 Q1010 R31L/19//60 NOSIG
Conditions at: UGTB (TBILISI/NOVO-AL , GE) observed 1400 UTC 17 April 2019
Temperature: 10.0°C (50°F)
Dewpoint: 4.0°C (39°F) [RH = 66%]
Pressure (altimeter): 29.82 inches Hg (1010.0 mb)
Winds: from the NW (310 degrees) at 32 MPH (28 knots; 14.4 m/s)
gusting to 46 MPH (40 knots; 20.6 m/s)
Visibility: 6 or more miles (10+ km)
Ceiling: at least 12,000 feet AGL
Clouds: few clouds at 5000 feet AGL
Weather: no significant weather observed at this time

METAR text: UGTB 171330Z 31028G42KT 9999 SCT050 11/05 Q1009 R31L/19//60 NOSIG
Conditions at: UGTB (TBILISI/NOVO-AL , GE) observed 1330 UTC 17 April 2019
Temperature: 11.0°C (52°F)
Dewpoint: 5.0°C (41°F) [RH = 66%]
Pressure (altimeter): 29.79 inches Hg (1009.0 mb)
Winds: from the NW (310 degrees) at 32 MPH (28 knots; 14.4 m/s)
gusting to 48 MPH (42 knots; 21.6 m/s)
Visibility: 6 or more miles (10+ km)
Ceiling: at least 12,000 feet AGL
Clouds: scattered clouds at 5000 feet AGL
Weather: no significant weather observed at this time

METAR text: UGTB 171300Z 31030KT 9999 SCT050 10/05 Q1009 R31L/19//60 NOSIG
Conditions at: UGTB (TBILISI/NOVO-AL , GE) observed 1300 UTC 17 April 2019
Temperature: 10.0°C (50°F)
Dewpoint: 5.0°C (41°F) [RH = 71%]
Pressure (altimeter): 29.79 inches Hg (1009.0 mb)
Winds: from the NW (310 degrees) at 34 MPH (30 knots; 15.4 m/s)
Visibility: 6 or more miles (10+ km)
Ceiling: at least 12,000 feet AGL
Clouds: scattered clouds at 5000 feet AGL
Weather: no significant weather observed at this time

METAR text: UGTB 171230Z 31028G38KT 9999 SCT050 11/05 Q1009 R31L/19//60 NOSIG
Conditions at: UGTB (TBILISI/NOVO-AL , GE) observed 1230 UTC 17 April 2019
Temperature: 11.0°C (52°F)
Dewpoint: 5.0°C (41°F) [RH = 66%]
Pressure (altimeter): 29.79 inches Hg (1009.0 mb)
Winds: from the NW (310 degrees) at 32 MPH (28 knots; 14.4 m/s)
gusting to 44 MPH (38 knots; 19.5 m/s)
Visibility: 6 or more miles (10+ km)
Ceiling: at least 12,000 feet AGL
Clouds: scattered clouds at 5000 feet AGL
Weather: no significant weather observed at this time

METAR text: UGTB 171200Z 31030KT 9999 SCT050 10/05 Q1008 R31L/19//60 NOSIG
Conditions at: UGTB (TBILISI/NOVO-AL , GE) observed 1200 UTC 17 April 2019
Temperature: 10.0°C (50°F)
Dewpoint: 5.0°C (41°F) [RH = 71%]
Pressure (altimeter): 29.76 inches Hg (1008.0 mb)
Winds: from the NW (310 degrees) at 34 MPH (30 knots; 15.4 m/s)
Visibility: 6 or more miles (10+ km)
Ceiling: at least 12,000 feet AGL
Clouds: scattered clouds at 5000 feet AGL
Weather: no significant weather observed at this time

METAR text: UGTB 171130Z 31025KT 9999 SCT057CB 10/06 Q1008 R31L/19//60 NOSIG
Conditions at: UGTB (TBILISI/NOVO-AL , GE) observed 1130 UTC 17 April 2019
Temperature: 10.0°C (50°F)
Dewpoint: 6.0°C (43°F) [RH = 76%]
Pressure (altimeter): 29.76 inches Hg (1008.0 mb)
Winds: from the NW (310 degrees) at 29 MPH (25 knots; 12.9 m/s)
Visibility: 6 or more miles (10+ km)
Ceiling: at least 12,000 feet AGL
Clouds: scattered clouds at 5700 feet AGL
Weather: no significant weather observed at this time

METAR text: UGTB 171100Z 31025KT 9999 SCT057CB 10/06 Q1008 R31L/290054 NOSIG
Conditions at: UGTB (TBILISI/NOVO-AL , GE) observed 1100 UTC 17 April 2019
Temperature: 10.0°C (50°F)
Dewpoint: 6.0°C (43°F) [RH = 76%]
Pressure (altimeter): 29.76 inches Hg (1008.0 mb)
Winds: from the NW (310 degrees) at 29 MPH (25 knots; 12.9 m/s)
Visibility: 6 or more miles (10+ km)
Ceiling: at least 12,000 feet AGL
Clouds: scattered clouds at 5700 feet AGL
Weather: no significant weather observed at this time

METAR text: UGTB 171030Z 31024KT 9999 SCT031CB BKN056 09/06 Q1008 R31L/290054 NOSIG
Conditions at: UGTB (TBILISI/NOVO-AL , GE) observed 1030 UTC 17 April 2019
Temperature: 9.0°C (48°F)
Dewpoint: 6.0°C (43°F) [RH = 81%]
Pressure (altimeter): 29.76 inches Hg (1008.0 mb)
Winds: from the NW (310 degrees) at 28 MPH (24 knots; 12.3 m/s)
Visibility: 6 or more miles (10+ km)
Ceiling: 5600 feet AGL
Clouds: scattered clouds at 3100 feet AGL
broken clouds at 5600 feet AGL
Weather: no significant weather observed at this time

METAR text: UGTB 171000Z 32022KT 9999 -SHRA BKN068CB 09/07 Q1008 R31L/290054 NOSIG
Conditions at: UGTB (TBILISI/NOVO-AL , GE) observed 1000 UTC 17 April 2019
Temperature: 9.0°C (48°F)
Dewpoint: 7.0°C (45°F) [RH = 87%]
Pressure (altimeter): 29.76 inches Hg (1008.0 mb)
Winds: from the NW (320 degrees) at 25 MPH (22 knots; 11.3 m/s)
Visibility: 6 or more miles (10+ km)
Ceiling: 6800 feet AGL
Clouds: broken clouds at 6800 feet AGL
Weather: -SHRA  (light rain showers)

METAR text: UGTB 170930Z 31020KT 9999 -SHRA BKN048CB OVC066 09/07 Q1008 R31L/290054 NOSIG
Conditions at: UGTB (TBILISI/NOVO-AL , GE) observed 0930 UTC 17 April 2019
Temperature: 9.0°C (48°F)
Dewpoint: 7.0°C (45°F) [RH = 87%]
Pressure (altimeter): 29.76 inches Hg (1008.0 mb)
Winds: from the NW (310 degrees) at 23 MPH (20 knots; 10.3 m/s)
Visibility: 6 or more miles (10+ km)
Ceiling: 4800 feet AGL
Clouds: broken clouds at 4800 feet AGL
overcast cloud deck at 6600 feet AGL
Weather: -SHRA  (light rain showers)

METAR text: UGTB 170900Z 30015KT 9999 -SHRA BKN048CB OVC064 10/07 Q1008 R31L/290054 NOSIG
Conditions at: UGTB (TBILISI/NOVO-AL , GE) observed 0900 UTC 17 April 2019
Temperature: 10.0°C (50°F)
Dewpoint: 7.0°C (45°F) [RH = 82%]
Pressure (altimeter): 29.76 inches Hg (1008.0 mb)
Winds: from the WNW (300 degrees) at 17 MPH (15 knots; 7.7 m/s)
Visibility: 6 or more miles (10+ km)
Ceiling: 4800 feet AGL
Clouds: broken clouds at 4800 feet AGL
overcast cloud deck at 6400 feet AGL
Weather: -SHRA  (light rain showers)

METAR text: UGTB 170830Z 30015KT 9999 -SHRA BKN030CB OVC044 10/07 Q1008 R31L/290054 NOSIG
Conditions at: UGTB (TBILISI/NOVO-AL , GE) observed 0830 UTC 17 April 2019
Temperature: 10.0°C (50°F)
Dewpoint: 7.0°C (45°F) [RH = 82%]
Pressure (altimeter): 29.76 inches Hg (1008.0 mb)
Winds: from the WNW (300 degrees) at 17 MPH (15 knots; 7.7 m/s)
Visibility: 6 or more miles (10+ km)
Ceiling: 3000 feet AGL
Clouds: broken clouds at 3000 feet AGL
overcast cloud deck at 4400 feet AGL
Weather: -SHRA  (light rain showers)

METAR text: UGTB 170800Z 31018KT 9999 -SHRA BKN030CB OVC044 10/07 Q1007 R31L/290054 NOSIG
Conditions at: UGTB (TBILISI/NOVO-AL , GE) observed 0800 UTC 17 April 2019
Temperature: 10.0°C (50°F)
Dewpoint: 7.0°C (45°F) [RH = 82%]
Pressure (altimeter): 29.73 inches Hg (1007.0 mb)
Winds: from the NW (310 degrees) at 21 MPH (18 knots; 9.3 m/s)
Visibility: 6 or more miles (10+ km)
Ceiling: 3000 feet AGL
Clouds: broken clouds at 3000 feet AGL
overcast cloud deck at 4400 feet AGL
Weather: -SHRA  (light rain showers)

METAR text: UGTB 170730Z 31020KT 9999 -SHRA BKN030CB OVC040 10/08 Q1007 R31L/290054 NOSIG
Conditions at: UGTB (TBILISI/NOVO-AL , GE) observed 0730 UTC 17 April 2019
Temperature: 10.0°C (50°F)
Dewpoint: 8.0°C (46°F) [RH = 87%]
Pressure (altimeter): 29.73 inches Hg (1007.0 mb)
Winds: from the NW (310 degrees) at 23 MPH (20 knots; 10.3 m/s)
Visibility: 6 or more miles (10+ km)
Ceiling: 3000 feet AGL
Clouds: broken clouds at 3000 feet AGL
overcast cloud deck at 4000 feet AGL
Weather: -SHRA  (light rain showers)

Forecast for: UGTB (TBILISI/NOVO-AL , GE)
Text: TAF UGTB 181700Z 1818/1918 32018KT 9999 SCT050CB TX13/1911Z TN08/1902Z
Forecast period: 1800 UTC 18 April 2019 to 0600 UTC 19 April 2019
Forecast type: FROM: standard forecast or significant change
Winds: from the NW (320 degrees) at 21 MPH (18 knots; 9.3 m/s)
Visibility: 6 or more miles 10+ km)
Ceiling: at least 12,000 feet AGL
Clouds: scattered clouds at 5000 feet AGL
Weather: no significant weather forecast for this period
Text: PROB40
Forecast period: 1800 UTC 18 April 2019 to 0100 UTC 19 April 2019
Forecast type: TEMPORARY: The following changes expected for less than half the time period
Visibility: missing
Ceiling: 3000 feet AGL
Clouds: broken clouds at 3000 feet AGL
Weather: SHRA  (rain showers)
Text: TEMPO 1818/1901 SHRA BKN030CB
Forecast period: 2300 UTC 18 April 2019 to 0600 UTC 19 April 2019
Forecast type: TEMPORARY: The following changes expected for less than half the time period
Winds: from the NW (310 degrees) at 8 MPH (7 knots; 3.6 m/s)
Visibility: missing
Ceiling: unknown
Clouds: missing
Weather: no significant weather forecast for this period
Text: TEMPO 1823/1906 31007KT
Forecast period: 0600 to 1800 UTC 19 April 2019
Forecast type: BECOMING: Conditions expected to become as follows by 0800 UTC 19 April 2019
Winds: from the SE (140 degrees) at 10 MPH (9 knots; 4.6 m/s)
Visibility: 6 or more miles 10+ km)
Ceiling: at least 12,000 feet AGL
Clouds: scattered clouds at 5000 feet AGL
Weather: no significant weather forecast for this period